sensor_id;sensor_type;location;lat;lon;timestamp;pressure;altitude;pressure_sealevel;temperature;humidity
50702;BME280;36670;50.094;8.496;2023-04-22T00:02:12;99706.88;;;14.23;62.96
50702;BME280;36670;50.094;8.496;2023-04-22T00:04:39;99703.38;;;14.36;62.69
50702;BME280;36670;50.094;8.496;2023-04-22T00:07:05;99702.81;;;14.39;62.29
50702;BME280;36670;50.094;8.496;2023-04-22T00:09:31;99699.41;;;14.18;62.89
50702;BME280;36670;50.094;8.496;2023-04-22T00:11:56;99703.25;;;14.22;62.83
50702;BME280;36670;50.094;8.496;2023-04-22T00:14:22;99703.81;;;13.90;63.18
50702;BME280;36670;50.094;8.496;2023-04-22T00:16:48;99697.22;;;13.80;63.75
50702;BME280;36670;50.094;8.496;2023-04-22T00:19:13;99705.78;;;13.84;63.35
50702;BME280;36670;50.094;8.496;2023-04-22T00:21:38;99706.59;;;13.90;63.98
50702;BME280;36670;50.094;8.496;2023-04-22T00:24:04;99703.28;;;13.88;63.39
50702;BME280;36670;50.094;8.496;2023-04-22T00:26:29;99705.69;;;13.60;64.65
50702;BME280;36670;50.094;8.496;2023-04-22T00:28:55;99701.50;;;13.62;64.80
50702;BME280;36670;50.094;8.496;2023-04-22T00:31:21;99701.56;;;13.57;64.63
50702;BME280;36670;50.094;8.496;2023-04-22T00:33:46;99696.75;;;14.03;63.40
50702;BME280;36670;50.094;8.496;2023-04-22T00:36:11;99692.25;;;14.12;62.72
50702;BME280;36670;50.094;8.496;2023-04-22T00:38:37;99693.16;;;14.02;63.44
50702;BME280;36670;50.094;8.496;2023-04-22T00:41:03;99688.09;;;14.09;63.38
50702;BME280;36670;50.094;8.496;2023-04-22T00:43:28;99686.66;;;13.82;64.18
50702;BME280;36670;50.094;8.496;2023-04-22T00:45:55;99688.53;;;14.22;62.67
50702;BME280;36670;50.094;8.496;2023-04-22T00:48:21;99688.28;;;14.18;62.85
50702;BME280;36670;50.094;8.496;2023-04-22T00:50:47;99693.59;;;13.85;64.01
50702;BME280;36670;50.094;8.496;2023-04-22T00:53:12;99697.75;;;13.82;64.58
50702;BME280;36670;50.094;8.496;2023-04-22T00:55:38;99694.66;;;13.89;63.58
50702;BME280;36670;50.094;8.496;2023-04-22T00:58:04;99692.84;;;13.69;64.14
50702;BME280;36670;50.094;8.496;2023-04-22T01:00:29;99689.25;;;13.69;64.70
50702;BME280;36670;50.094;8.496;2023-04-22T01:02:55;99689.84;;;14.00;63.23
50702;BME280;36670;50.094;8.496;2023-04-22T01:05:22;99675.06;;;14.10;63.32
50702;BME280;36670;50.094;8.496;2023-04-22T01:07:48;99675.31;;;13.79;63.83
50702;BME280;36670;50.094;8.496;2023-04-22T01:10:13;99671.84;;;13.97;63.94
50702;BME280;36670;50.094;8.496;2023-04-22T01:12:38;99675.84;;;14.15;63.20
50702;BME280;36670;50.094;8.496;2023-04-22T01:15:04;99680.16;;;13.97;63.94
50702;BME280;36670;50.094;8.496;2023-04-22T01:17:30;99674.66;;;13.92;64.22
50702;BME280;36670;50.094;8.496;2023-04-22T01:19:57;99680.19;;;13.92;63.62
50702;BME280;36670;50.094;8.496;2023-04-22T01:22:25;99668.97;;;14.37;62.72
50702;BME280;36670;50.094;8.496;2023-04-22T01:24:52;99669.56;;;14.58;62.60
50702;BME280;36670;50.094;8.496;2023-04-22T01:27:17;99672.44;;;14.24;62.53
50702;BME280;36670;50.094;8.496;2023-04-22T01:29:43;99674.63;;;14.27;62.60
50702;BME280;36670;50.094;8.496;2023-04-22T01:32:08;99681.38;;;14.45;61.77
50702;BME280;36670;50.094;8.496;2023-04-22T01:34:33;99680.03;;;14.13;62.70
50702;BME280;36670;50.094;8.496;2023-04-22T01:36:58;99679.25;;;14.07;62.99
50702;BME280;36670;50.094;8.496;2023-04-22T01:39:24;99681.16;;;14.12;62.72
50702;BME280;36670;50.094;8.496;2023-04-22T01:41:50;99678.53;;;13.91;62.92
50702;BME280;36670;50.094;8.496;2023-04-22T01:44:15;99675.69;;;14.02;63.43
50702;BME280;36670;50.094;8.496;2023-04-22T01:46:41;99676.09;;;13.50;64.17
50702;BME280;36670;50.094;8.496;2023-04-22T01:49:06;99675.31;;;13.34;64.83
50702;BME280;36670;50.094;8.496;2023-04-22T01:51:32;99685.03;;;13.31;65.39
50702;BME280;36670;50.094;8.496;2023-04-22T01:53:57;99679.88;;;13.64;64.50
50702;BME280;36670;50.094;8.496;2023-04-22T01:56:23;99677.81;;;13.36;65.64
50702;BME280;36670;50.094;8.496;2023-04-22T01:58:48;99667.38;;;13.12;65.63
50702;BME280;36670;50.094;8.496;2023-04-22T02:01:14;99673.13;;;13.36;65.66
50702;BME280;36670;50.094;8.496;2023-04-22T02:03:39;99677.78;;;13.80;64.76
50702;BME280;36670;50.094;8.496;2023-04-22T02:06:05;99672.69;;;13.93;63.67
50702;BME280;36670;50.094;8.496;2023-04-22T02:08:30;99682.59;;;13.70;65.23
50702;BME280;36670;50.094;8.496;2023-04-22T02:10:56;99678.22;;;13.98;64.18
50702;BME280;36670;50.094;8.496;2023-04-22T02:13:22;99680.09;;;14.32;62.67
50702;BME280;36670;50.094;8.496;2023-04-22T02:15:47;99670.41;;;14.59;62.91
50702;BME280;36670;50.094;8.496;2023-04-22T02:18:13;99676.00;;;14.29;63.06
50702;BME280;36670;50.094;8.496;2023-04-22T02:20:38;99671.09;;;14.45;62.74
50702;BME280;36670;50.094;8.496;2023-04-22T02:23:03;99672.63;;;14.03;63.05
50702;BME280;36670;50.094;8.496;2023-04-22T02:25:29;99668.91;;;14.42;62.90
50702;BME280;36670;50.094;8.496;2023-04-22T02:27:56;99676.22;;;14.62;62.37
50702;BME280;36670;50.094;8.496;2023-04-22T02:30:21;99677.88;;;14.58;62.34
50702;BME280;36670;50.094;8.496;2023-04-22T02:32:46;99672.28;;;14.10;63.54
50702;BME280;36670;50.094;8.496;2023-04-22T02:35:12;99678.50;;;13.96;63.55
50702;BME280;36670;50.094;8.496;2023-04-22T02:37:37;99665.88;;;14.39;63.43
50702;BME280;36670;50.094;8.496;2023-04-22T02:40:03;99674.63;;;14.51;62.44
50702;BME280;36670;50.094;8.496;2023-04-22T02:42:29;99662.31;;;14.09;63.01
50702;BME280;36670;50.094;8.496;2023-04-22T02:44:54;99670.81;;;13.88;63.81
50702;BME280;36670;50.094;8.496;2023-04-22T02:47:20;99668.22;;;14.26;62.98
50702;BME280;36670;50.094;8.496;2023-04-22T02:49:45;99671.56;;;14.28;63.37
50702;BME280;36670;50.094;8.496;2023-04-22T02:52:10;99672.19;;;14.20;63.38
50702;BME280;36670;50.094;8.496;2023-04-22T02:54:36;99673.09;;;13.81;64.20
50702;BME280;36670;50.094;8.496;2023-04-22T02:57:01;99673.19;;;14.00;64.02
50702;BME280;36670;50.094;8.496;2023-04-22T02:59:27;99674.06;;;13.95;63.77
50702;BME280;36670;50.094;8.496;2023-04-22T03:01:52;99684.94;;;13.92;63.75
50702;BME280;36670;50.094;8.496;2023-04-22T03:04:18;99679.72;;;13.85;64.14
50702;BME280;36670;50.094;8.496;2023-04-22T03:06:47;99690.13;;;13.98;64.14
50702;BME280;36670;50.094;8.496;2023-04-22T03:09:12;99696.25;;;14.30;63.30
50702;BME280;36670;50.094;8.496;2023-04-22T03:11:38;99688.16;;;14.63;62.14
50702;BME280;36670;50.094;8.496;2023-04-22T03:14:03;99689.59;;;14.55;62.34
50702;BME280;36670;50.094;8.496;2023-04-22T03:16:28;99681.94;;;14.42;62.46
50702;BME280;36670;50.094;8.496;2023-04-22T03:18:54;99688.56;;;14.46;62.96
50702;BME280;36670;50.094;8.496;2023-04-22T03:21:19;99684.69;;;14.17;63.45
50702;BME280;36670;50.094;8.496;2023-04-22T03:23:44;99688.81;;;14.25;63.49
50702;BME280;36670;50.094;8.496;2023-04-22T03:26:10;99684.94;;;13.92;63.77
50702;BME280;36670;50.094;8.496;2023-04-22T03:28:36;99679.63;;;13.95;64.40
50702;BME280;36670;50.094;8.496;2023-04-22T03:31:01;99683.13;;;14.36;63.37
50702;BME280;36670;50.094;8.496;2023-04-22T03:33:26;99693.47;;;14.30;62.67
50702;BME280;36670;50.094;8.496;2023-04-22T03:35:51;99675.91;;;13.71;63.76
50702;BME280;36670;50.094;8.496;2023-04-22T03:38:19;99681.25;;;14.02;64.04
50702;BME280;36670;50.094;8.496;2023-04-22T03:40:44;99673.16;;;13.71;63.90
50702;BME280;36670;50.094;8.496;2023-04-22T03:43:09;99684.06;;;13.57;64.30
50702;BME280;36670;50.094;8.496;2023-04-22T03:45:35;99678.47;;;14.02;63.93
50702;BME280;36670;50.094;8.496;2023-04-22T03:48:01;99673.44;;;13.69;63.89
50702;BME280;36670;50.094;8.496;2023-04-22T03:50:26;99684.72;;;13.43;65.22
50702;BME280;36670;50.094;8.496;2023-04-22T03:52:51;99678.69;;;13.71;64.62
50702;BME280;36670;50.094;8.496;2023-04-22T03:55:16;99677.56;;;14.11;63.60
50702;BME280;36670;50.094;8.496;2023-04-22T03:57:42;99683.25;;;13.96;63.45
50702;BME280;36670;50.094;8.496;2023-04-22T04:00:07;99687.22;;;13.45;64.82
50702;BME280;36670;50.094;8.496;2023-04-22T04:02:33;99684.19;;;13.81;64.53
50702;BME280;36670;50.094;8.496;2023-04-22T04:04:58;99680.94;;;13.69;64.66
50702;BME280;36670;50.094;8.496;2023-04-22T04:07:23;99685.88;;;13.32;64.54
50702;BME280;36670;50.094;8.496;2023-04-22T04:09:49;99678.63;;;13.81;64.06
50702;BME280;36670;50.094;8.496;2023-04-22T04:12:14;99683.22;;;13.61;64.65
50702;BME280;36670;50.094;8.496;2023-04-22T04:14:39;99676.81;;;13.61;64.51
50702;BME280;36670;50.094;8.496;2023-04-22T04:17:05;99689.19;;;13.34;64.40
50702;BME280;36670;50.094;8.496;2023-04-22T04:19:35;99681.00;;;13.58;64.06
50702;BME280;36670;50.094;8.496;2023-04-22T04:22:01;99696.31;;;13.51;64.46
50702;BME280;36670;50.094;8.496;2023-04-22T04:24:26;99690.66;;;13.11;64.89
50702;BME280;36670;50.094;8.496;2023-04-22T04:26:52;99684.44;;;12.85;65.51
50702;BME280;36670;50.094;8.496;2023-04-22T04:29:17;99688.84;;;12.86;65.81
50702;BME280;36670;50.094;8.496;2023-04-22T04:31:44;99682.47;;;12.85;66.04
50702;BME280;36670;50.094;8.496;2023-04-22T04:34:09;99677.81;;;12.80;66.23
50702;BME280;36670;50.094;8.496;2023-04-22T04:36:34;99677.16;;;12.99;66.38
50702;BME280;36670;50.094;8.496;2023-04-22T04:39:00;99677.44;;;13.03;65.54
50702;BME280;36670;50.094;8.496;2023-04-22T04:41:26;99684.16;;;13.41;64.78
50702;BME280;36670;50.094;8.496;2023-04-22T04:43:52;99683.56;;;13.49;64.22
50702;BME280;36670;50.094;8.496;2023-04-22T04:46:17;99683.72;;;13.19;65.50
50702;BME280;36670;50.094;8.496;2023-04-22T04:48:44;99683.81;;;12.93;65.50
50702;BME280;36670;50.094;8.496;2023-04-22T04:51:10;99679.56;;;13.16;65.67
50702;BME280;36670;50.094;8.496;2023-04-22T04:53:36;99677.00;;;13.30;64.79
50702;BME280;36670;50.094;8.496;2023-04-22T04:56:02;99676.19;;;13.24;65.53
50702;BME280;36670;50.094;8.496;2023-04-22T04:58:28;99669.50;;;12.80;66.01
50702;BME280;36670;50.094;8.496;2023-04-22T05:00:53;99670.53;;;12.90;66.21
50702;BME280;36670;50.094;8.496;2023-04-22T05:03:18;99661.34;;;13.05;65.37
50702;BME280;36670;50.094;8.496;2023-04-22T05:05:44;99670.97;;;13.18;65.19
50702;BME280;36670;50.094;8.496;2023-04-22T05:08:10;99664.31;;;13.19;64.97
50702;BME280;36670;50.094;8.496;2023-04-22T05:10:35;99669.13;;;13.03;65.62
50702;BME280;36670;50.094;8.496;2023-04-22T05:13:01;99669.41;;;13.51;64.87
50702;BME280;36670;50.094;8.496;2023-04-22T05:15:26;99664.09;;;13.60;63.83
50702;BME280;36670;50.094;8.496;2023-04-22T05:17:54;99668.84;;;13.89;63.58
50702;BME280;36670;50.094;8.496;2023-04-22T05:20:20;99670.47;;;13.95;63.57
50702;BME280;36670;50.094;8.496;2023-04-22T05:22:45;99673.25;;;13.95;63.00
50702;BME280;36670;50.094;8.496;2023-04-22T05:25:10;99673.53;;;13.59;63.48
50702;BME280;36670;50.094;8.496;2023-04-22T05:27:36;99677.41;;;13.58;64.24
50702;BME280;36670;50.094;8.496;2023-04-22T05:30:02;99685.88;;;13.32;64.44
50702;BME280;36670;50.094;8.496;2023-04-22T05:32:27;99682.06;;;13.68;64.28
50702;BME280;36670;50.094;8.496;2023-04-22T05:34:52;99681.00;;;13.58;64.24
50702;BME280;36670;50.094;8.496;2023-04-22T05:37:18;99686.00;;;13.96;63.27
50702;BME280;36670;50.094;8.496;2023-04-22T05:39:43;99684.72;;;13.83;63.41
50702;BME280;36670;50.094;8.496;2023-04-22T05:42:08;99679.56;;;13.66;63.79
50702;BME280;36670;50.094;8.496;2023-04-22T05:44:33;99688.03;;;14.20;62.88
50702;BME280;36670;50.094;8.496;2023-04-22T05:46:59;99682.25;;;14.40;62.79
50702;BME280;36670;50.094;8.496;2023-04-22T05:49:27;99684.78;;;15.33;62.68
50702;BME280;36670;50.094;8.496;2023-04-22T05:51:52;99677.50;;;16.09;60.65
50702;BME280;36670;50.094;8.496;2023-04-22T05:54:17;99677.94;;;17.04;59.57
50702;BME280;36670;50.094;8.496;2023-04-22T05:56:43;99680.06;;;17.35;56.90
50702;BME280;36670;50.094;8.496;2023-04-22T05:59:09;99676.47;;;17.35;56.49
50702;BME280;36670;50.094;8.496;2023-04-22T06:01:35;99683.84;;;17.53;55.43
50702;BME280;36670;50.094;8.496;2023-04-22T06:04:01;99676.50;;;18.17;54.77
50702;BME280;36670;50.094;8.496;2023-04-22T06:06:26;99673.88;;;18.52;53.86
50702;BME280;36670;50.094;8.496;2023-04-22T06:08:52;99675.97;;;18.77;52.52
50702;BME280;36670;50.094;8.496;2023-04-22T06:11:17;99680.78;;;18.46;52.50
50702;BME280;36670;50.094;8.496;2023-04-22T06:13:42;99685.44;;;17.46;52.81
50702;BME280;36670;50.094;8.496;2023-04-22T06:16:08;99691.56;;;17.70;53.40
50702;BME280;36670;50.094;8.496;2023-04-22T06:18:33;99693.38;;;17.52;53.54
50702;BME280;36670;50.094;8.496;2023-04-22T06:21:00;99693.44;;;17.61;53.46
50702;BME280;36670;50.094;8.496;2023-04-22T06:23:26;99695.66;;;17.36;54.27
50702;BME280;36670;50.094;8.496;2023-04-22T06:25:51;99691.16;;;17.27;54.68
50702;BME280;36670;50.094;8.496;2023-04-22T06:28:16;99701.06;;;17.33;54.73
50702;BME280;36670;50.094;8.496;2023-04-22T06:30:42;99691.16;;;17.27;55.48
50702;BME280;36670;50.094;8.496;2023-04-22T06:33:07;99684.81;;;17.71;54.08
50702;BME280;36670;50.094;8.496;2023-04-22T06:35:48;99686.03;;;17.79;53.99
50702;BME280;36670;50.094;8.496;2023-04-22T06:38:13;99681.97;;;17.85;53.37
50702;BME280;36670;50.094;8.496;2023-04-22T06:40:38;99677.72;;;17.88;53.36
50702;BME280;36670;50.094;8.496;2023-04-22T06:43:04;99673.00;;;18.11;53.05
50702;BME280;36670;50.094;8.496;2023-04-22T06:45:29;99676.50;;;17.57;52.92
50702;BME280;36670;50.094;8.496;2023-04-22T06:47:54;99673.56;;;17.99;52.95
50702;BME280;36670;50.094;8.496;2023-04-22T06:50:20;99668.88;;;18.08;52.71
50702;BME280;36670;50.094;8.496;2023-04-22T06:52:45;99664.94;;;18.41;52.13
50702;BME280;36670;50.094;8.496;2023-04-22T06:55:10;99673.75;;;18.25;51.60
50702;BME280;36670;50.094;8.496;2023-04-22T06:57:36;99672.81;;;18.07;51.93
50702;BME280;36670;50.094;8.496;2023-04-22T07:00:03;99681.84;;;17.68;52.81
50702;BME280;36670;50.094;8.496;2023-04-22T07:02:28;99681.16;;;17.62;53.47
50702;BME280;36670;50.094;8.496;2023-04-22T07:04:54;99688.19;;;17.60;53.99
50702;BME280;36670;50.094;8.496;2023-04-22T07:07:22;99692.94;;;17.96;52.99
50702;BME280;36670;50.094;8.496;2023-04-22T07:09:47;99686.56;;;18.27;51.15
50702;BME280;36670;50.094;8.496;2023-04-22T07:12:13;99674.16;;;18.41;51.11
50702;BME280;36670;50.094;8.496;2023-04-22T07:14:42;99670.16;;;18.34;51.24
50702;BME280;36670;50.094;8.496;2023-04-22T07:17:08;99671.22;;;18.47;50.54
50702;BME280;36670;50.094;8.496;2023-04-22T07:19:33;99671.66;;;18.71;49.76
50702;BME280;36670;50.094;8.496;2023-04-22T07:21:59;99668.97;;;18.57;50.39
50702;BME280;36670;50.094;8.496;2023-04-22T07:24:24;99662.66;;;18.43;50.64
50702;BME280;36670;50.094;8.496;2023-04-22T07:26:50;99672.59;;;18.58;50.28
50702;BME280;36670;50.094;8.496;2023-04-22T07:29:15;99665.63;;;18.87;49.19
50702;BME280;36670;50.094;8.496;2023-04-22T07:31:40;99651.16;;;18.85;49.29
50702;BME280;36670;50.094;8.496;2023-04-22T07:34:08;99663.75;;;19.05;50.16
50702;BME280;36670;50.094;8.496;2023-04-22T07:36:35;99656.19;;;19.05;48.04
50702;BME280;36670;50.094;8.496;2023-04-22T07:39:00;99651.06;;;19.07;49.08
50702;BME280;36670;50.094;8.496;2023-04-22T07:41:25;99650.97;;;19.39;47.56
50702;BME280;36670;50.094;8.496;2023-04-22T07:43:51;99652.44;;;19.54;47.21
50702;BME280;36670;50.094;8.496;2023-04-22T07:46:16;99648.66;;;19.50;47.38
50702;BME280;36670;50.094;8.496;2023-04-22T07:48:41;99644.66;;;19.07;48.86
50702;BME280;36670;50.094;8.496;2023-04-22T07:51:07;99651.06;;;18.99;47.99
50702;BME280;36670;50.094;8.496;2023-04-22T07:53:32;99660.28;;;19.08;47.52
50702;BME280;36670;50.094;8.496;2023-04-22T07:55:59;99653.75;;;18.72;48.49
50702;BME280;36670;50.094;8.496;2023-04-22T07:58:24;99650.63;;;18.42;48.98
50702;BME280;36670;50.094;8.496;2023-04-22T08:00:50;99648.75;;;18.60;48.50
50702;BME280;36670;50.094;8.496;2023-04-22T08:03:15;99651.41;;;19.15;48.19
50702;BME280;36670;50.094;8.496;2023-04-22T08:05:40;99645.56;;;19.51;49.13
50702;BME280;36670;50.094;8.496;2023-04-22T08:08:06;99655.41;;;20.10;48.06
50702;BME280;36670;50.094;8.496;2023-04-22T08:10:31;99644.28;;;20.40;46.77
50702;BME280;36670;50.094;8.496;2023-04-22T08:12:56;99646.50;;;20.17;46.92
50702;BME280;36670;50.094;8.496;2023-04-22T08:15:22;99648.16;;;20.09;46.34
50702;BME280;36670;50.094;8.496;2023-04-22T08:17:47;99646.03;;;19.88;46.82
50702;BME280;36670;50.094;8.496;2023-04-22T08:20:13;99639.06;;;20.12;47.33
50702;BME280;36670;50.094;8.496;2023-04-22T08:22:39;99640.75;;;19.52;46.69
50702;BME280;36670;50.094;8.496;2023-04-22T08:25:07;99649.16;;;19.87;46.83
50702;BME280;36670;50.094;8.496;2023-04-22T08:27:33;99644.72;;;20.51;47.07
50702;BME280;36670;50.094;8.496;2023-04-22T08:29:58;99643.09;;;21.18;45.74
50702;BME280;36670;50.094;8.496;2023-04-22T08:32:23;99635.56;;;21.10;46.00
50702;BME280;36670;50.094;8.496;2023-04-22T08:34:50;99633.78;;;21.26;45.67
50702;BME280;36670;50.094;8.496;2023-04-22T08:37:21;99636.84;;;21.12;45.23
50702;BME280;36670;50.094;8.496;2023-04-22T08:39:47;99641.38;;;21.05;45.39
50702;BME280;36670;50.094;8.496;2023-04-22T08:42:13;99628.88;;;21.44;44.92
50702;BME280;36670;50.094;8.496;2023-04-22T08:44:40;99637.84;;;21.80;44.27
50702;BME280;36670;50.094;8.496;2023-04-22T08:47:06;99626.00;;;21.74;44.31
50702;BME280;36670;50.094;8.496;2023-04-22T08:49:33;99626.72;;;22.05;44.55
50702;BME280;36670;50.094;8.496;2023-04-22T08:51:59;99630.97;;;22.23;44.36
50702;BME280;36670;50.094;8.496;2023-04-22T08:54:24;99615.59;;;22.66;43.27
50702;BME280;36670;50.094;8.496;2023-04-22T08:56:50;99623.31;;;23.07;43.30
50702;BME280;36670;50.094;8.496;2023-04-22T08:59:16;99621.88;;;23.25;42.09
50702;BME280;36670;50.094;8.496;2023-04-22T09:01:42;99624.09;;;23.44;42.43
50702;BME280;36670;50.094;8.496;2023-04-22T09:04:08;99612.63;;;23.65;41.98
50702;BME280;36670;50.094;8.496;2023-04-22T09:06:34;99614.91;;;23.47;42.06
50702;BME280;36670;50.094;8.496;2023-04-22T09:09:00;99616.41;;;23.16;42.16
50702;BME280;36670;50.094;8.496;2023-04-22T09:11:27;99613.28;;;23.46;42.17
50702;BME280;36670;50.094;8.496;2023-04-22T09:13:53;99603.13;;;23.17;41.74
50702;BME280;36670;50.094;8.496;2023-04-22T09:16:18;99603.03;;;23.13;42.57
50702;BME280;36670;50.094;8.496;2023-04-22T09:18:44;99607.38;;;23.23;41.24
50702;BME280;36670;50.094;8.496;2023-04-22T09:21:12;99616.25;;;23.00;42.02
50702;BME280;36670;50.094;8.496;2023-04-22T09:23:49;99613.75;;;23.48;41.73
50702;BME280;36670;50.094;8.496;2023-04-22T09:26:17;99612.88;;;23.20;40.88
50702;BME280;36670;50.094;8.496;2023-04-22T09:28:55;99614.16;;;22.97;41.62
50702;BME280;36670;50.094;8.496;2023-04-22T09:31:23;99609.25;;;22.94;41.92
50702;BME280;36670;50.094;8.496;2023-04-22T09:33:53;99610.66;;;22.88;42.51
50702;BME280;36670;50.094;8.496;2023-04-22T09:36:27;99609.47;;;23.01;42.53
50702;BME280;36670;50.094;8.496;2023-04-22T09:38:53;99610.72;;;23.69;41.89
50702;BME280;36670;50.094;8.496;2023-04-22T09:41:26;99608.59;;;24.07;41.74
50702;BME280;36670;50.094;8.496;2023-04-22T09:43:53;99604.06;;;23.62;41.11
50702;BME280;36670;50.094;8.496;2023-04-22T09:46:21;99593.63;;;23.62;41.68
50702;BME280;36670;50.094;8.496;2023-04-22T09:48:48;99601.88;;;23.55;41.58
50702;BME280;36670;50.094;8.496;2023-04-22T09:51:14;99594.47;;;23.50;41.17
50702;BME280;36670;50.094;8.496;2023-04-22T09:53:43;99594.44;;;23.63;41.42
50702;BME280;36670;50.094;8.496;2023-04-22T09:56:08;99598.22;;;23.95;40.84
50702;BME280;36670;50.094;8.496;2023-04-22T09:58:38;99602.28;;;23.98;39.82
50702;BME280;36670;50.094;8.496;2023-04-22T10:01:04;99597.16;;;24.48;39.92
50702;BME280;36670;50.094;8.496;2023-04-22T10:03:30;99592.41;;;24.52;39.83
50702;BME280;36670;50.094;8.496;2023-04-22T10:05:59;99590.34;;;24.49;39.91
50702;BME280;36670;50.094;8.496;2023-04-22T10:08:25;99592.78;;;24.50;39.36
50702;BME280;36670;50.094;8.496;2023-04-22T10:10:52;99590.25;;;24.77;39.43
50702;BME280;36670;50.094;8.496;2023-04-22T10:13:17;99588.25;;;24.78;39.09
50702;BME280;36670;50.094;8.496;2023-04-22T10:15:54;99575.09;;;24.85;38.73
50702;BME280;36670;50.094;8.496;2023-04-22T10:18:25;99580.06;;;24.57;38.80
50702;BME280;36670;50.094;8.496;2023-04-22T10:20:53;99572.75;;;24.56;39.01
50702;BME280;36670;50.094;8.496;2023-04-22T10:23:22;99577.56;;;24.55;39.48
50702;BME280;36670;50.094;8.496;2023-04-22T10:25:49;99575.59;;;24.24;39.41
50702;BME280;36670;50.094;8.496;2023-04-22T10:28:26;99581.16;;;24.68;39.30
50702;BME280;36670;50.094;8.496;2023-04-22T10:31:19;99567.84;;;24.84;38.92
50702;BME280;36670;50.094;8.496;2023-04-22T10:33:46;99558.22;;;25.25;38.78
50702;BME280;36670;50.094;8.496;2023-04-22T10:41:14;99564.63;;;25.21;38.58
50702;BME280;36670;50.094;8.496;2023-04-22T10:43:55;99557.38;;;24.85;38.96
50702;BME280;36670;50.094;8.496;2023-04-22T10:48:57;99561.22;;;25.12;38.50
50702;BME280;36670;50.094;8.496;2023-04-22T10:51:39;99545.47;;;25.31;36.15
50702;BME280;36670;50.094;8.496;2023-04-22T10:54:05;99553.78;;;25.24;37.32
50702;BME280;36670;50.094;8.496;2023-04-22T10:56:30;99547.66;;;25.57;35.93
50702;BME280;36670;50.094;8.496;2023-04-22T10:58:55;99547.44;;;25.46;37.88
50702;BME280;36670;50.094;8.496;2023-04-22T11:01:21;99546.03;;;25.99;36.45
50702;BME280;36670;50.094;8.496;2023-04-22T11:03:46;99537.88;;;25.74;36.64
50702;BME280;36670;50.094;8.496;2023-04-22T11:06:19;99531.66;;;25.45;36.46
50702;BME280;36670;50.094;8.496;2023-04-22T11:08:49;99533.94;;;25.59;36.46
50702;BME280;36670;50.094;8.496;2023-04-22T11:11:18;99528.44;;;26.09;36.17
50702;BME280;36670;50.094;8.496;2023-04-22T11:13:43;99531.88;;;25.99;36.35
50702;BME280;36670;50.094;8.496;2023-04-22T11:16:09;99529.41;;;26.67;35.67
50702;BME280;36670;50.094;8.496;2023-04-22T11:18:36;99518.81;;;26.87;34.65
50702;BME280;36670;50.094;8.496;2023-04-22T11:21:02;99519.72;;;26.95;35.06
50702;BME280;36670;50.094;8.496;2023-04-22T11:23:30;99520.94;;;27.24;34.94
50702;BME280;36670;50.094;8.496;2023-04-22T11:25:57;99516.97;;;26.71;33.66
50702;BME280;36670;50.094;8.496;2023-04-22T11:28:23;99507.72;;;27.05;34.06
50702;BME280;36670;50.094;8.496;2023-04-22T11:30:49;99512.53;;;27.35;34.06
50702;BME280;36670;50.094;8.496;2023-04-22T11:33:15;99504.97;;;27.42;32.28
50702;BME280;36670;50.094;8.496;2023-04-22T11:35:41;99504.66;;;27.48;32.74
50702;BME280;36670;50.094;8.496;2023-04-22T11:38:07;99506.09;;;27.04;32.89
50702;BME280;36670;50.094;8.496;2023-04-22T11:40:40;99501.75;;;26.83;33.68
50702;BME280;36670;50.094;8.496;2023-04-22T11:43:07;99504.03;;;27.01;33.18
50702;BME280;36670;50.094;8.496;2023-04-22T11:45:35;99499.38;;;27.46;32.97
50702;BME280;36670;50.094;8.496;2023-04-22T11:48:01;99495.22;;;27.09;31.71
50702;BME280;36670;50.094;8.496;2023-04-22T11:50:29;99507.66;;;27.01;32.72
50702;BME280;36670;50.094;8.496;2023-04-22T11:52:57;99496.22;;;26.90;31.55
50702;BME280;36670;50.094;8.496;2023-04-22T11:58:37;99489.56;;;26.79;31.81
50702;BME280;36670;50.094;8.496;2023-04-22T12:01:03;99490.56;;;26.94;32.06
50702;BME280;36670;50.094;8.496;2023-04-22T12:03:29;99483.88;;;27.06;31.90
50702;BME280;36670;50.094;8.496;2023-04-22T12:05:59;99487.13;;;27.08;31.76
50702;BME280;36670;50.094;8.496;2023-04-22T12:08:30;99486.69;;;26.76;30.64
50702;BME280;36670;50.094;8.496;2023-04-22T12:10:59;99488.72;;;26.75;30.88
50702;BME280;36670;50.094;8.496;2023-04-22T12:13:46;99486.03;;;26.36;30.70
50702;BME280;36670;50.094;8.496;2023-04-22T12:16:13;99485.94;;;26.29;30.46
50702;BME280;36670;50.094;8.496;2023-04-22T12:21:17;99493.66;;;25.85;30.14
50702;BME280;36670;50.094;8.496;2023-04-22T12:23:48;99480.09;;;25.95;30.04
50702;BME280;36670;50.094;8.496;2023-04-22T12:26:15;99483.88;;;26.26;31.29
50702;BME280;36670;50.094;8.496;2023-04-22T12:28:42;99472.66;;;26.60;31.27
50702;BME280;36670;50.094;8.496;2023-04-22T12:31:08;99477.34;;;26.48;31.37
50702;BME280;36670;50.094;8.496;2023-04-22T12:33:35;99477.19;;;26.37;32.30
50702;BME280;36670;50.094;8.496;2023-04-22T12:36:00;99470.81;;;26.17;30.88
50702;BME280;36670;50.094;8.496;2023-04-22T12:38:26;99476.06;;;26.42;31.34
50702;BME280;36670;50.094;8.496;2023-04-22T12:40:52;99480.34;;;26.86;31.24
50702;BME280;36670;50.094;8.496;2023-04-22T12:43:18;99468.88;;;27.05;31.07
50702;BME280;36670;50.094;8.496;2023-04-22T12:45:43;99474.44;;;26.98;31.20
50702;BME280;36670;50.094;8.496;2023-04-22T12:48:08;99472.69;;;27.20;30.97
50702;BME280;36670;50.094;8.496;2023-04-22T12:50:34;99466.66;;;26.91;31.28
50702;BME280;36670;50.094;8.496;2023-04-22T12:52:59;99469.63;;;26.72;31.61
50702;BME280;36670;50.094;8.496;2023-04-22T12:55:25;99475.94;;;26.62;31.35
50702;BME280;36670;50.094;8.496;2023-04-22T12:57:50;99468.91;;;26.75;31.45
50702;BME280;36670;50.094;8.496;2023-04-22T13:00:16;99476.56;;;26.51;32.21
50702;BME280;36670;50.094;8.496;2023-04-22T13:02:43;99483.38;;;26.20;31.36
50702;BME280;36670;50.094;8.496;2023-04-22T13:05:09;99475.75;;;26.01;32.10
50702;BME280;36670;50.094;8.496;2023-04-22T13:07:35;99464.25;;;26.36;32.73
50702;BME280;36670;50.094;8.496;2023-04-22T13:10:01;99470.59;;;26.30;32.17